sensor_id;sensor_type;location;lat;lon;timestamp;P1;durP1;ratioP1;P2;durP2;ratioP2
72286;SDS011;60221;45.696;16.076;2022-10-16T00:01:26;27.25;;;16.50;;
72286;SDS011;60221;45.696;16.076;2022-10-16T00:03:56;31.40;;;18.37;;
72286;SDS011;60221;45.696;16.076;2022-10-16T00:06:24;27.87;;;16.17;;
72286;SDS011;60221;45.696;16.076;2022-10-16T00:08:52;27.10;;;16.93;;
72286;SDS011;60221;45.696;16.076;2022-10-16T00:13:51;26.90;;;15.43;;
72286;SDS011;60221;45.696;16.076;2022-10-16T00:16:23;22.93;;;13.90;;
72286;SDS011;60221;45.696;16.076;2022-10-16T00:18:51;21.23;;;13.40;;
72286;SDS011;60221;45.696;16.076;2022-10-16T00:21:25;20.60;;;14.07;;
72286;SDS011;60221;45.696;16.076;2022-10-16T00:23:52;25.95;;;14.87;;
72286;SDS011;60221;45.696;16.076;2022-10-16T00:26:22;26.17;;;14.83;;
72286;SDS011;60221;45.696;16.076;2022-10-16T00:28:49;23.67;;;14.58;;
72286;SDS011;60221;45.696;16.076;2022-10-16T00:31:18;25.03;;;14.47;;
72286;SDS011;60221;45.696;16.076;2022-10-16T00:33:46;26.23;;;15.70;;
72286;SDS011;60221;45.696;16.076;2022-10-16T00:36:15;29.67;;;15.75;;
72286;SDS011;60221;45.696;16.076;2022-10-16T00:38:44;26.77;;;15.60;;
72286;SDS011;60221;45.696;16.076;2022-10-16T00:41:12;28.45;;;16.37;;
72286;SDS011;60221;45.696;16.076;2022-10-16T00:43:43;28.03;;;15.87;;
72286;SDS011;60221;45.696;16.076;2022-10-16T00:46:26;25.35;;;15.35;;
72286;SDS011;60221;45.696;16.076;2022-10-16T00:49:12;25.80;;;15.45;;
72286;SDS011;60221;45.696;16.076;2022-10-16T00:51:45;28.02;;;15.50;;
72286;SDS011;60221;45.696;16.076;2022-10-16T00:54:18;28.47;;;16.35;;
72286;SDS011;60221;45.696;16.076;2022-10-16T00:56:54;31.67;;;16.87;;
72286;SDS011;60221;45.696;16.076;2022-10-16T00:59:30;33.70;;;18.00;;
72286;SDS011;60221;45.696;16.076;2022-10-16T01:02:04;35.15;;;19.50;;
72286;SDS011;60221;45.696;16.076;2022-10-16T01:04:43;37.17;;;20.37;;
72286;SDS011;60221;45.696;16.076;2022-10-16T01:15:44;32.25;;;16.97;;
72286;SDS011;60221;45.696;16.076;2022-10-16T01:19:01;35.13;;;17.73;;
72286;SDS011;60221;45.696;16.076;2022-10-16T01:21:05;36.75;;;18.82;;
72286;SDS011;60221;45.696;16.076;2022-10-16T01:32:39;37.55;;;18.92;;
72286;SDS011;60221;45.696;16.076;2022-10-16T01:35:20;37.38;;;16.85;;
72286;SDS011;60221;45.696;16.076;2022-10-16T01:40:44;34.25;;;17.32;;
72286;SDS011;60221;45.696;16.076;2022-10-16T01:43:15;27.67;;;14.40;;
72286;SDS011;60221;45.696;16.076;2022-10-16T01:45:48;26.45;;;14.83;;
72286;SDS011;60221;45.696;16.076;2022-10-16T01:48:18;29.48;;;16.02;;
72286;SDS011;60221;45.696;16.076;2022-10-16T01:50:54;26.87;;;15.30;;
72286;SDS011;60221;45.696;16.076;2022-10-16T01:53:23;34.40;;;19.35;;
72286;SDS011;60221;45.696;16.076;2022-10-16T01:55:52;35.70;;;19.27;;
72286;SDS011;60221;45.696;16.076;2022-10-16T01:58:23;35.30;;;18.23;;
72286;SDS011;60221;45.696;16.076;2022-10-16T02:00:53;36.40;;;19.35;;
72286;SDS011;60221;45.696;16.076;2022-10-16T02:03:22;33.13;;;19.27;;
72286;SDS011;60221;45.696;16.076;2022-10-16T02:05:50;37.33;;;19.35;;
72286;SDS011;60221;45.696;16.076;2022-10-16T02:08:22;36.42;;;18.80;;
72286;SDS011;60221;45.696;16.076;2022-10-16T02:10:54;36.73;;;17.90;;
72286;SDS011;60221;45.696;16.076;2022-10-16T02:14:05;34.75;;;19.48;;
72286;SDS011;60221;45.696;16.076;2022-10-16T02:16:01;41.17;;;20.73;;
72286;SDS011;60221;45.696;16.076;2022-10-16T02:18:27;38.95;;;20.62;;
72286;SDS011;60221;45.696;16.076;2022-10-16T02:21:04;37.95;;;21.93;;
72286;SDS011;60221;45.696;16.076;2022-10-16T02:26:24;43.30;;;22.85;;
72286;SDS011;60221;45.696;16.076;2022-10-16T02:28:56;36.97;;;21.00;;
72286;SDS011;60221;45.696;16.076;2022-10-16T02:31:27;38.15;;;21.48;;
72286;SDS011;60221;45.696;16.076;2022-10-16T02:33:59;41.95;;;19.55;;
72286;SDS011;60221;45.696;16.076;2022-10-16T02:36:30;47.17;;;22.22;;
72286;SDS011;60221;45.696;16.076;2022-10-16T02:38:59;37.08;;;20.68;;
72286;SDS011;60221;45.696;16.076;2022-10-16T02:41:27;34.50;;;18.57;;
72286;SDS011;60221;45.696;16.076;2022-10-16T02:43:53;39.18;;;21.20;;
72286;SDS011;60221;45.696;16.076;2022-10-16T02:46:21;46.80;;;23.92;;
72286;SDS011;60221;45.696;16.076;2022-10-16T02:48:47;44.10;;;22.65;;
72286;SDS011;60221;45.696;16.076;2022-10-16T02:51:14;35.63;;;19.80;;
72286;SDS011;60221;45.696;16.076;2022-10-16T02:53:40;33.13;;;15.73;;
72286;SDS011;60221;45.696;16.076;2022-10-16T02:56:06;37.78;;;21.23;;
72286;SDS011;60221;45.696;16.076;2022-10-16T02:58:33;34.70;;;19.60;;
72286;SDS011;60221;45.696;16.076;2022-10-16T03:00:59;38.50;;;21.15;;
72286;SDS011;60221;45.696;16.076;2022-10-16T03:03:25;35.35;;;19.07;;
72286;SDS011;60221;45.696;16.076;2022-10-16T03:05:51;31.23;;;18.37;;
72286;SDS011;60221;45.696;16.076;2022-10-16T03:08:18;31.77;;;18.12;;
72286;SDS011;60221;45.696;16.076;2022-10-16T03:10:46;32.45;;;17.27;;
72286;SDS011;60221;45.696;16.076;2022-10-16T03:13:12;33.97;;;19.63;;
72286;SDS011;60221;45.696;16.076;2022-10-16T03:15:38;36.20;;;20.70;;
72286;SDS011;60221;45.696;16.076;2022-10-16T03:18:04;40.93;;;21.03;;
72286;SDS011;60221;45.696;16.076;2022-10-16T03:20:30;34.75;;;20.27;;
72286;SDS011;60221;45.696;16.076;2022-10-16T03:22:56;38.25;;;20.50;;
72286;SDS011;60221;45.696;16.076;2022-10-16T03:25:22;37.97;;;22.27;;
72286;SDS011;60221;45.696;16.076;2022-10-16T03:27:49;34.95;;;18.95;;
72286;SDS011;60221;45.696;16.076;2022-10-16T03:30:15;35.48;;;20.32;;
72286;SDS011;60221;45.696;16.076;2022-10-16T03:32:43;60.75;;;27.37;;
72286;SDS011;60221;45.696;16.076;2022-10-16T03:35:11;44.17;;;22.47;;
72286;SDS011;60221;45.696;16.076;2022-10-16T03:37:38;47.98;;;23.15;;
72286;SDS011;60221;45.696;16.076;2022-10-16T03:40:04;36.80;;;20.75;;
72286;SDS011;60221;45.696;16.076;2022-10-16T03:42:32;37.40;;;21.17;;
72286;SDS011;60221;45.696;16.076;2022-10-16T03:44:58;40.90;;;20.37;;
72286;SDS011;60221;45.696;16.076;2022-10-16T03:47:24;40.38;;;20.25;;
72286;SDS011;60221;45.696;16.076;2022-10-16T03:49:51;43.40;;;19.93;;
72286;SDS011;60221;45.696;16.076;2022-10-16T03:52:17;33.23;;;18.23;;
72286;SDS011;60221;45.696;16.076;2022-10-16T03:54:43;29.52;;;17.35;;
72286;SDS011;60221;45.696;16.076;2022-10-16T03:57:09;28.40;;;17.47;;
72286;SDS011;60221;45.696;16.076;2022-10-16T03:59:35;26.35;;;16.25;;
72286;SDS011;60221;45.696;16.076;2022-10-16T04:02:01;40.70;;;22.20;;
72286;SDS011;60221;45.696;16.076;2022-10-16T04:04:28;43.70;;;22.02;;
72286;SDS011;60221;45.696;16.076;2022-10-16T04:06:54;40.05;;;20.72;;
72286;SDS011;60221;45.696;16.076;2022-10-16T04:09:20;43.87;;;19.70;;
72286;SDS011;60221;45.696;16.076;2022-10-16T04:11:46;33.40;;;17.87;;
72286;SDS011;60221;45.696;16.076;2022-10-16T04:14:12;37.25;;;15.48;;
72286;SDS011;60221;45.696;16.076;2022-10-16T04:16:38;41.87;;;16.37;;
72286;SDS011;60221;45.696;16.076;2022-10-16T04:19:04;29.65;;;17.02;;
72286;SDS011;60221;45.696;16.076;2022-10-16T04:21:30;28.75;;;16.52;;
72286;SDS011;60221;45.696;16.076;2022-10-16T04:23:56;27.27;;;16.23;;
72286;SDS011;60221;45.696;16.076;2022-10-16T04:26:22;24.77;;;14.75;;
72286;SDS011;60221;45.696;16.076;2022-10-16T04:28:48;28.40;;;15.60;;
72286;SDS011;60221;45.696;16.076;2022-10-16T04:31:14;29.12;;;15.63;;
72286;SDS011;60221;45.696;16.076;2022-10-16T04:33:42;29.90;;;16.20;;
72286;SDS011;60221;45.696;16.076;2022-10-16T04:36:09;28.32;;;16.40;;
72286;SDS011;60221;45.696;16.076;2022-10-16T04:38:36;29.67;;;16.32;;
72286;SDS011;60221;45.696;16.076;2022-10-16T04:41:03;31.60;;;15.48;;
72286;SDS011;60221;45.696;16.076;2022-10-16T04:43:29;24.55;;;13.72;;
72286;SDS011;60221;45.696;16.076;2022-10-16T04:45:55;23.23;;;12.87;;
72286;SDS011;60221;45.696;16.076;2022-10-16T04:48:21;27.22;;;15.53;;
72286;SDS011;60221;45.696;16.076;2022-10-16T04:50:48;26.03;;;15.53;;
72286;SDS011;60221;45.696;16.076;2022-10-16T04:53:14;25.90;;;14.45;;
72286;SDS011;60221;45.696;16.076;2022-10-16T04:55:42;24.60;;;14.38;;
72286;SDS011;60221;45.696;16.076;2022-10-16T04:58:09;24.65;;;15.65;;
72286;SDS011;60221;45.696;16.076;2022-10-16T05:00:35;24.20;;;15.58;;
72286;SDS011;60221;45.696;16.076;2022-10-16T05:03:02;27.07;;;15.87;;
72286;SDS011;60221;45.696;16.076;2022-10-16T05:05:30;22.50;;;13.62;;
72286;SDS011;60221;45.696;16.076;2022-10-16T05:07:56;26.70;;;15.05;;
72286;SDS011;60221;45.696;16.076;2022-10-16T05:10:22;22.07;;;11.90;;
72286;SDS011;60221;45.696;16.076;2022-10-16T05:12:48;22.75;;;14.45;;
72286;SDS011;60221;45.696;16.076;2022-10-16T05:15:14;25.23;;;16.12;;
72286;SDS011;60221;45.696;16.076;2022-10-16T05:17:40;22.05;;;13.18;;
72286;SDS011;60221;45.696;16.076;2022-10-16T05:20:07;18.90;;;12.97;;
72286;SDS011;60221;45.696;16.076;2022-10-16T05:22:33;20.25;;;14.15;;
72286;SDS011;60221;45.696;16.076;2022-10-16T05:24:59;20.60;;;14.45;;
72286;SDS011;60221;45.696;16.076;2022-10-16T05:27:25;27.67;;;15.83;;
72286;SDS011;60221;45.696;16.076;2022-10-16T05:29:51;22.00;;;14.43;;
72286;SDS011;60221;45.696;16.076;2022-10-16T05:32:18;46.73;;;13.53;;
72286;SDS011;60221;45.696;16.076;2022-10-16T05:34:45;21.97;;;13.30;;
72286;SDS011;60221;45.696;16.076;2022-10-16T05:37:11;22.47;;;13.73;;
72286;SDS011;60221;45.696;16.076;2022-10-16T05:39:38;22.30;;;13.93;;
72286;SDS011;60221;45.696;16.076;2022-10-16T05:42:05;23.05;;;13.20;;
72286;SDS011;60221;45.696;16.076;2022-10-16T05:44:31;24.95;;;15.93;;
72286;SDS011;60221;45.696;16.076;2022-10-16T05:46:58;26.20;;;17.00;;
72286;SDS011;60221;45.696;16.076;2022-10-16T05:49:24;31.83;;;18.67;;
72286;SDS011;60221;45.696;16.076;2022-10-16T05:51:50;30.15;;;17.57;;
72286;SDS011;60221;45.696;16.076;2022-10-16T05:54:16;27.58;;;15.78;;
72286;SDS011;60221;45.696;16.076;2022-10-16T05:56:43;28.90;;;14.80;;
72286;SDS011;60221;45.696;16.076;2022-10-16T05:59:09;47.73;;;15.78;;
72286;SDS011;60221;45.696;16.076;2022-10-16T06:01:35;28.65;;;16.67;;
72286;SDS011;60221;45.696;16.076;2022-10-16T06:04:01;31.68;;;16.62;;
72286;SDS011;60221;45.696;16.076;2022-10-16T06:06:28;32.07;;;15.63;;
72286;SDS011;60221;45.696;16.076;2022-10-16T06:08:56;23.30;;;13.62;;
72286;SDS011;60221;45.696;16.076;2022-10-16T06:11:24;21.37;;;12.50;;
72286;SDS011;60221;45.696;16.076;2022-10-16T06:13:54;19.15;;;11.43;;
72286;SDS011;60221;45.696;16.076;2022-10-16T06:16:24;23.90;;;12.25;;
72286;SDS011;60221;45.696;16.076;2022-10-16T06:18:52;27.63;;;13.40;;
72286;SDS011;60221;45.696;16.076;2022-10-16T06:21:22;23.50;;;13.10;;
72286;SDS011;60221;45.696;16.076;2022-10-16T06:23:51;27.77;;;12.53;;
72286;SDS011;60221;45.696;16.076;2022-10-16T06:26:19;25.72;;;10.90;;
72286;SDS011;60221;45.696;16.076;2022-10-16T06:28:49;28.40;;;11.18;;
72286;SDS011;60221;45.696;16.076;2022-10-16T06:31:16;18.13;;;12.63;;
72286;SDS011;60221;45.696;16.076;2022-10-16T06:33:43;15.50;;;10.32;;
72286;SDS011;60221;45.696;16.076;2022-10-16T06:36:13;14.45;;;9.68;;
72286;SDS011;60221;45.696;16.076;2022-10-16T06:38:42;13.62;;;9.60;;
72286;SDS011;60221;45.696;16.076;2022-10-16T06:41:11;15.75;;;9.40;;
72286;SDS011;60221;45.696;16.076;2022-10-16T06:43:40;19.93;;;9.93;;
72286;SDS011;60221;45.696;16.076;2022-10-16T06:46:08;18.82;;;10.20;;
72286;SDS011;60221;45.696;16.076;2022-10-16T06:48:37;24.82;;;11.48;;
72286;SDS011;60221;45.696;16.076;2022-10-16T06:51:15;24.15;;;10.50;;
72286;SDS011;60221;45.696;16.076;2022-10-16T06:53:40;21.05;;;8.48;;
72286;SDS011;60221;45.696;16.076;2022-10-16T06:56:11;13.73;;;8.73;;
72286;SDS011;60221;45.696;16.076;2022-10-16T06:58:43;13.83;;;8.93;;
72286;SDS011;60221;45.696;16.076;2022-10-16T07:01:12;13.62;;;8.43;;
72286;SDS011;60221;45.696;16.076;2022-10-16T07:03:40;13.60;;;7.75;;
72286;SDS011;60221;45.696;16.076;2022-10-16T07:06:09;13.65;;;8.95;;
72286;SDS011;60221;45.696;16.076;2022-10-16T07:08:39;22.53;;;9.53;;
72286;SDS011;60221;45.696;16.076;2022-10-16T07:11:09;16.05;;;9.45;;
72286;SDS011;60221;45.696;16.076;2022-10-16T07:13:39;15.55;;;9.90;;
72286;SDS011;60221;45.696;16.076;2022-10-16T07:16:15;14.80;;;9.13;;
72286;SDS011;60221;45.696;16.076;2022-10-16T07:18:41;15.93;;;10.80;;
72286;SDS011;60221;45.696;16.076;2022-10-16T07:21:18;18.73;;;11.87;;
72286;SDS011;60221;45.696;16.076;2022-10-16T07:23:53;19.05;;;13.93;;
72286;SDS011;60221;45.696;16.076;2022-10-16T07:26:22;17.17;;;11.78;;
72286;SDS011;60221;45.696;16.076;2022-10-16T07:28:50;18.85;;;15.72;;
72286;SDS011;60221;45.696;16.076;2022-10-16T07:31:18;15.05;;;10.43;;
72286;SDS011;60221;45.696;16.076;2022-10-16T07:33:46;19.47;;;11.43;;
72286;SDS011;60221;45.696;16.076;2022-10-16T07:36:14;20.37;;;13.93;;
72286;SDS011;60221;45.696;16.076;2022-10-16T07:38:43;20.00;;;12.70;;
72286;SDS011;60221;45.696;16.076;2022-10-16T07:41:11;18.98;;;10.72;;
72286;SDS011;60221;45.696;16.076;2022-10-16T07:43:40;24.30;;;15.03;;
72286;SDS011;60221;45.696;16.076;2022-10-16T07:46:14;20.63;;;15.43;;
72286;SDS011;60221;45.696;16.076;2022-10-16T07:48:42;22.42;;;11.68;;
72286;SDS011;60221;45.696;16.076;2022-10-16T07:51:11;18.62;;;13.25;;
72286;SDS011;60221;45.696;16.076;2022-10-16T07:53:38;22.50;;;13.68;;
72286;SDS011;60221;45.696;16.076;2022-10-16T07:56:04;23.18;;;13.72;;
72286;SDS011;60221;45.696;16.076;2022-10-16T07:58:34;21.53;;;14.33;;
72286;SDS011;60221;45.696;16.076;2022-10-16T08:01:05;20.32;;;15.45;;
72286;SDS011;60221;45.696;16.076;2022-10-16T08:03:35;15.78;;;10.25;;
72286;SDS011;60221;45.696;16.076;2022-10-16T08:06:05;16.90;;;11.33;;
72286;SDS011;60221;45.696;16.076;2022-10-16T08:08:33;20.23;;;11.20;;
72286;SDS011;60221;45.696;16.076;2022-10-16T08:10:59;20.35;;;12.33;;
72286;SDS011;60221;45.696;16.076;2022-10-16T08:13:25;19.82;;;12.85;;
72286;SDS011;60221;45.696;16.076;2022-10-16T08:15:53;18.47;;;11.73;;
72286;SDS011;60221;45.696;16.076;2022-10-16T08:18:20;18.95;;;12.50;;
72286;SDS011;60221;45.696;16.076;2022-10-16T08:20:47;20.20;;;12.58;;
72286;SDS011;60221;45.696;16.076;2022-10-16T08:23:13;21.77;;;14.13;;
72286;SDS011;60221;45.696;16.076;2022-10-16T08:25:40;22.87;;;13.38;;
72286;SDS011;60221;45.696;16.076;2022-10-16T08:28:07;19.00;;;12.73;;
72286;SDS011;60221;45.696;16.076;2022-10-16T08:30:36;21.62;;;13.15;;
72286;SDS011;60221;45.696;16.076;2022-10-16T08:33:05;21.90;;;13.03;;
72286;SDS011;60221;45.696;16.076;2022-10-16T08:35:32;16.25;;;10.72;;
72286;SDS011;60221;45.696;16.076;2022-10-16T08:37:58;20.10;;;13.83;;
72286;SDS011;60221;45.696;16.076;2022-10-16T08:46:00;20.37;;;14.15;;
72286;SDS011;60221;45.696;16.076;2022-10-16T08:48:46;23.20;;;16.02;;
72286;SDS011;60221;45.696;16.076;2022-10-16T08:51:18;21.57;;;14.53;;
72286;SDS011;60221;45.696;16.076;2022-10-16T08:53:55;20.08;;;14.30;;
72286;SDS011;60221;45.696;16.076;2022-10-16T08:56:24;21.55;;;14.80;;
72286;SDS011;60221;45.696;16.076;2022-10-16T08:58:52;25.43;;;17.75;;
72286;SDS011;60221;45.696;16.076;2022-10-16T09:01:20;22.70;;;16.48;;
72286;SDS011;60221;45.696;16.076;2022-10-16T09:06:39;24.23;;;16.70;;
72286;SDS011;60221;45.696;16.076;2022-10-16T09:13:02;24.45;;;16.50;;
72286;SDS011;60221;45.696;16.076;2022-10-16T09:20:49;21.90;;;15.43;;
72286;SDS011;60221;45.696;16.076;2022-10-16T09:23:36;21.90;;;15.50;;
72286;SDS011;60221;45.696;16.076;2022-10-16T09:26:03;24.82;;;18.65;;
72286;SDS011;60221;45.696;16.076;2022-10-16T09:28:34;22.60;;;17.02;;
72286;SDS011;60221;45.696;16.076;2022-10-16T09:31:00;24.27;;;16.30;;
72286;SDS011;60221;45.696;16.076;2022-10-16T09:33:33;20.37;;;15.08;;
72286;SDS011;60221;45.696;16.076;2022-10-16T09:36:04;19.23;;;14.70;;
72286;SDS011;60221;45.696;16.076;2022-10-16T09:38:33;22.62;;;16.62;;
72286;SDS011;60221;45.696;16.076;2022-10-16T09:41:13;26.73;;;17.40;;
72286;SDS011;60221;45.696;16.076;2022-10-16T09:46:27;24.37;;;17.95;;
72286;SDS011;60221;45.696;16.076;2022-10-16T09:49:01;25.20;;;17.27;;
72286;SDS011;60221;45.696;16.076;2022-10-16T09:54:12;25.20;;;17.25;;
72286;SDS011;60221;45.696;16.076;2022-10-16T09:56:37;23.80;;;17.07;;
72286;SDS011;60221;45.696;16.076;2022-10-16T09:59:14;26.15;;;18.27;;
72286;SDS011;60221;45.696;16.076;2022-10-16T10:01:53;25.03;;;17.57;;
72286;SDS011;60221;45.696;16.076;2022-10-16T10:04:18;25.02;;;17.65;;
72286;SDS011;60221;45.696;16.076;2022-10-16T10:06:48;21.65;;;15.13;;
72286;SDS011;60221;45.696;16.076;2022-10-16T10:11:59;25.90;;;17.80;;
72286;SDS011;60221;45.696;16.076;2022-10-16T10:14:37;22.53;;;17.07;;
72286;SDS011;60221;45.696;16.076;2022-10-16T10:17:12;23.45;;;17.40;;
72286;SDS011;60221;45.696;16.076;2022-10-16T10:19:47;24.47;;;18.00;;
72286;SDS011;60221;45.696;16.076;2022-10-16T10:39:00;27.17;;;18.77;;
72286;SDS011;60221;45.696;16.076;2022-10-16T10:55:43;25.70;;;19.00;;
72286;SDS011;60221;45.696;16.076;2022-10-16T11:01:22;27.87;;;18.00;;
72286;SDS011;60221;45.696;16.076;2022-10-16T11:06:53;27.55;;;19.60;;
72286;SDS011;60221;45.696;16.076;2022-10-16T11:17:38;22.67;;;16.45;;
72286;SDS011;60221;45.696;16.076;2022-10-16T11:20:18;25.77;;;15.38;;
72286;SDS011;60221;45.696;16.076;2022-10-16T11:22:59;26.60;;;16.33;;
72286;SDS011;60221;45.696;16.076;2022-10-16T11:25:30;23.73;;;16.60;;
72286;SDS011;60221;45.696;16.076;2022-10-16T11:30:41;22.22;;;15.78;;
72286;SDS011;60221;45.696;16.076;2022-10-16T11:46:50;20.48;;;15.83;;
72286;SDS011;60221;45.696;16.076;2022-10-16T11:49:30;26.10;;;16.30;;
72286;SDS011;60221;45.696;16.076;2022-10-16T11:52:06;24.43;;;16.73;;
72286;SDS011;60221;45.696;16.076;2022-10-16T11:54:43;26.93;;;16.52;;
72286;SDS011;60221;45.696;16.076;2022-10-16T11:58:13;23.47;;;16.77;;
72286;SDS011;60221;45.696;16.076;2022-10-16T11:59:58;23.83;;;15.58;;
72286;SDS011;60221;45.696;16.076;2022-10-16T12:02:49;23.53;;;16.30;;
72286;SDS011;60221;45.696;16.076;2022-10-16T12:08:28;22.65;;;15.70;;
72286;SDS011;60221;45.696;16.076;2022-10-16T12:11:05;21.20;;;15.32;;
72286;SDS011;60221;45.696;16.076;2022-10-16T12:13:34;22.93;;;14.80;;
72286;SDS011;60221;45.696;16.076;2022-10-16T12:18:43;20.23;;;12.78;;
72286;SDS011;60221;45.696;16.076;2022-10-16T12:21:13;19.90;;;14.87;;
72286;SDS011;60221;45.696;16.076;2022-10-16T12:23:52;22.67;;;14.58;;
72286;SDS011;60221;45.696;16.076;2022-10-16T12:26:29;21.73;;;16.17;;
72286;SDS011;60221;45.696;16.076;2022-10-16T12:28:55;25.20;;;17.10;;
72286;SDS011;60221;45.696;16.076;2022-10-16T12:31:39;21.30;;;15.50;;
72286;SDS011;60221;45.696;16.076;2022-10-16T12:34:19;18.02;;;12.95;;
72286;SDS011;60221;45.696;16.076;2022-10-16T12:36:48;22.82;;;15.58;;
72286;SDS011;60221;45.696;16.076;2022-10-16T12:39:27;19.00;;;14.33;;
72286;SDS011;60221;45.696;16.076;2022-10-16T12:42:00;20.67;;;14.03;;
72286;SDS011;60221;45.696;16.076;2022-10-16T12:44:33;23.27;;;14.43;;
72286;SDS011;60221;45.696;16.076;2022-10-16T12:47:02;22.45;;;14.98;;
72286;SDS011;60221;45.696;16.076;2022-10-16T12:49:29;21.68;;;14.87;;
72286;SDS011;60221;45.696;16.076;2022-10-16T12:52:03;22.45;;;14.78;;
72286;SDS011;60221;45.696;16.076;2022-10-16T12:54:31;22.43;;;14.97;;
72286;SDS011;60221;45.696;16.076;2022-10-16T13:05:42;22.48;;;16.48;;
72286;SDS011;60221;45.696;16.076;2022-10-16T13:23:14;21.80;;;15.57;;
72286;SDS011;60221;45.696;16.076;2022-10-16T13:28:32;24.02;;;15.58;;
72286;SDS011;60221;45.696;16.076;2022-10-16T13:31:01;22.58;;;15.50;;
72286;SDS011;60221;45.696;16.076;2022-10-16T13:33:33;21.35;;;15.15;;
72286;SDS011;60221;45.696;16.076;2022-10-16T13:36:03;20.67;;;14.43;;
72286;SDS011;60221;45.696;16.076;2022-10-16T13:38:32;22.40;;;16.20;;
72286;SDS011;60221;45.696;16.076;2022-10-16T13:43:39;21.17;;;15.65;;
72286;SDS011;60221;45.696;16.076;2022-10-16T13:46:16;24.82;;;15.35;;
72286;SDS011;60221;45.696;16.076;2022-10-16T13:48:59;24.53;;;15.17;;
72286;SDS011;60221;45.696;16.076;2022-10-16T13:51:36;17.82;;;12.68;;
72286;SDS011;60221;45.696;16.076;2022-10-16T13:54:02;20.52;;;14.28;;
72286;SDS011;60221;45.696;16.076;2022-10-16T13:56:29;24.25;;;16.77;;
72286;SDS011;60221;45.696;16.076;2022-10-16T13:58:58;21.20;;;14.03;;
72286;SDS011;60221;45.696;16.076;2022-10-16T14:04:07;19.75;;;12.68;;
72286;SDS011;60221;45.696;16.076;2022-10-16T14:06:33;19.65;;;12.73;;
72286;SDS011;60221;45.696;16.076;2022-10-16T14:09:08;23.12;;;15.65;;
72286;SDS011;60221;45.696;16.076;2022-10-16T14:11:46;18.27;;;13.58;;
72286;SDS011;60221;45.696;16.076;2022-10-16T14:14:17;20.80;;;14.47;;
72286;SDS011;60221;45.696;16.076;2022-10-16T14:16:47;21.68;;;15.13;;
72286;SDS011;60221;45.696;16.076;2022-10-16T14:19:21;20.90;;;13.90;;
72286;SDS011;60221;45.696;16.076;2022-10-16T14:21:51;20.40;;;14.23;;
72286;SDS011;60221;45.696;16.076;2022-10-16T14:24:27;23.30;;;16.10;;
72286;SDS011;60221;45.696;16.076;2022-10-16T14:26:53;20.87;;;14.90;;
72286;SDS011;60221;45.696;16.076;2022-10-16T14:29:21;24.10;;;17.30;;
72286;SDS011;60221;45.696;16.076;2022-10-16T14:31:54;21.93;;;14.15;;
72286;SDS011;60221;45.696;16.076;2022-10-16T14:34:31;20.82;;;14.25;;
72286;SDS011;60221;45.696;16.076;2022-10-16T14:37:01;23.50;;;16.55;;
72286;SDS011;60221;45.696;16.076;2022-10-16T14:39:48;20.27;;;14.13;;
72286;SDS011;60221;45.696;16.076;2022-10-16T14:42:17;21.93;;;14.68;;
72286;SDS011;60221;45.696;16.076;2022-10-16T14:44:48;18.07;;;12.88;;
72286;SDS011;60221;45.696;16.076;2022-10-16T14:47:21;18.70;;;12.35;;
72286;SDS011;60221;45.696;16.076;2022-10-16T14:49:52;21.35;;;14.10;;
72286;SDS011;60221;45.696;16.076;2022-10-16T14:52:21;20.40;;;14.13;;
72286;SDS011;60221;45.696;16.076;2022-10-16T14:54:48;25.23;;;16.30;;
72286;SDS011;60221;45.696;16.076;2022-10-16T14:57:22;25.27;;;16.00;;
72286;SDS011;60221;45.696;16.076;2022-10-16T14:59:51;23.67;;;16.40;;
72286;SDS011;60221;45.696;16.076;2022-10-16T15:04:57;24.63;;;15.00;;
72286;SDS011;60221;45.696;16.076;2022-10-16T15:07:43;21.15;;;13.05;;
72286;SDS011;60221;45.696;16.076;2022-10-16T15:10:11;21.97;;;13.32;;
72286;SDS011;60221;45.696;16.076;2022-10-16T15:12:39;24.05;;;15.08;;
72286;SDS011;60221;45.696;16.076;2022-10-16T15:18:04;23.77;;;15.40;;
72286;SDS011;60221;45.696;16.076;2022-10-16T15:20:31;24.95;;;16.32;;
72286;SDS011;60221;45.696;16.076;2022-10-16T15:23:01;27.77;;;16.85;;
72286;SDS011;60221;45.696;16.076;2022-10-16T15:25:37;23.40;;;16.10;;
72286;SDS011;60221;45.696;16.076;2022-10-16T15:28:13;24.30;;;16.35;;
72286;SDS011;60221;45.696;16.076;2022-10-16T15:30:42;25.57;;;17.53;;
72286;SDS011;60221;45.696;16.076;2022-10-16T15:33:17;24.43;;;16.70;;
72286;SDS011;60221;45.696;16.076;2022-10-16T15:35:46;26.42;;;17.40;;
72286;SDS011;60221;45.696;16.076;2022-10-16T15:38:18;28.47;;;17.77;;
72286;SDS011;60221;45.696;16.076;2022-10-16T15:40:47;26.87;;;17.30;;
72286;SDS011;60221;45.696;16.076;2022-10-16T15:43:14;26.50;;;17.87;;
72286;SDS011;60221;45.696;16.076;2022-10-16T15:45:41;26.60;;;15.18;;
72286;SDS011;60221;45.696;16.076;2022-10-16T15:48:11;23.22;;;16.55;;
72286;SDS011;60221;45.696;16.076;2022-10-16T15:50:39;24.52;;;16.35;;
72286;SDS011;60221;45.696;16.076;2022-10-16T15:53:07;26.80;;;16.80;;
72286;SDS011;60221;45.696;16.076;2022-10-16T15:55:34;23.53;;;15.50;;
72286;SDS011;60221;45.696;16.076;2022-10-16T15:58:03;26.35;;;16.65;;
72286;SDS011;60221;45.696;16.076;2022-10-16T16:00:30;31.75;;;20.40;;
72286;SDS011;60221;45.696;16.076;2022-10-16T16:02:57;37.03;;;22.67;;
72286;SDS011;60221;45.696;16.076;2022-10-16T16:05:23;34.93;;;22.37;;
72286;SDS011;60221;45.696;16.076;2022-10-16T16:07:49;35.30;;;22.48;;
72286;SDS011;60221;45.696;16.076;2022-10-16T16:10:16;33.90;;;20.52;;
72286;SDS011;60221;45.696;16.076;2022-10-16T16:12:45;35.97;;;23.37;;
72286;SDS011;60221;45.696;16.076;2022-10-16T16:15:15;37.05;;;22.65;;
72286;SDS011;60221;45.696;16.076;2022-10-16T16:17:42;34.75;;;22.20;;
72286;SDS011;60221;45.696;16.076;2022-10-16T16:20:09;36.35;;;22.22;;
72286;SDS011;60221;45.696;16.076;2022-10-16T16:22:36;36.25;;;23.45;;
72286;SDS011;60221;45.696;16.076;2022-10-16T16:25:02;36.30;;;21.33;;
72286;SDS011;60221;45.696;16.076;2022-10-16T16:27:29;40.03;;;25.37;;
72286;SDS011;60221;45.696;16.076;2022-10-16T16:29:57;44.25;;;26.23;;
72286;SDS011;60221;45.696;16.076;2022-10-16T16:32:23;42.67;;;27.27;;
72286;SDS011;60221;45.696;16.076;2022-10-16T16:34:50;47.03;;;28.87;;
72286;SDS011;60221;45.696;16.076;2022-10-16T16:37:16;44.20;;;27.98;;
72286;SDS011;60221;45.696;16.076;2022-10-16T16:39:43;40.50;;;24.45;;
72286;SDS011;60221;45.696;16.076;2022-10-16T16:42:09;38.23;;;24.27;;
72286;SDS011;60221;45.696;16.076;2022-10-16T16:44:35;43.73;;;25.97;;
72286;SDS011;60221;45.696;16.076;2022-10-16T16:47:03;67.60;;;39.30;;
72286;SDS011;60221;45.696;16.076;2022-10-16T16:49:30;92.75;;;58.17;;
72286;SDS011;60221;45.696;16.076;2022-10-16T16:51:58;84.75;;;51.77;;
72286;SDS011;60221;45.696;16.076;2022-10-16T16:54:24;70.00;;;42.53;;
72286;SDS011;60221;45.696;16.076;2022-10-16T16:56:50;60.17;;;34.27;;
72286;SDS011;60221;45.696;16.076;2022-10-16T16:59:20;55.70;;;32.70;;